Decoded Metar for EPLL (LODZ in POLAND) (IATA:N/A) | Meteo·Mobile Aviation Weather
aviador You're here:

EPLL Decoded Metar

LODZ in POLAND
Report Time2019-09-21 09:00:00
UTC Time2019-09-21 09:11:16
Flight Rules vfr VFR
Wind240° at 07 kt
W.Decomp.*RWY 25: 6.8 kt HW 1.7 kt LCW
Visibility9999 m
Phenomena:N/A
Clouds:Broken 037 Hf
Expected CloudBase > 1,600 ft AGL from Temp-Dew spread
Ceiling3,700 ft
Temp11°C (ISA -3)
Dew Point07°C (77% RH)
AAT7.8°C
QNH1024 hPa
Density Alt36 ft
Elevation604 ft
Report Wrong Elevation
Raw Report
METAR EPLL 210900Z 24007KT 9999 BKN037 11/07 Q1024 =

Extra information for EPLL:More info

Metar Taf Metar & Taf Last 4 Metars F.Rules Stats Wind Profile Meteogram Temp Stats Airport Information Weather charts Add Link Nearby VenuesMetar ALERT Operation Metar Decoded Social comments